sensor_id;sensor_type;location;lat;lon;timestamp;P1;durP1;ratioP1;P2;durP2;ratioP2
10934;SDS011;5520;45.752;4.874;2022-08-05T00:00:14;5.20;;;1.23;;
10934;SDS011;5520;45.752;4.874;2022-08-05T00:02:42;1.17;;;1.00;;
10934;SDS011;5520;45.752;4.874;2022-08-05T00:05:17;2.05;;;1.40;;
10934;SDS011;5520;45.752;4.874;2022-08-05T00:08:05;1.63;;;1.48;;
10934;SDS011;5520;45.752;4.874;2022-08-05T00:10:54;2.40;;;1.42;;
10934;SDS011;5520;45.752;4.874;2022-08-05T00:13:26;3.97;;;2.15;;
10934;SDS011;5520;45.752;4.874;2022-08-05T00:16:07;2.53;;;1.40;;
10934;SDS011;5520;45.752;4.874;2022-08-05T00:18:38;1.73;;;1.13;;
10934;SDS011;5520;45.752;4.874;2022-08-05T00:21:07;1.90;;;1.40;;
10934;SDS011;5520;45.752;4.874;2022-08-05T00:23:36;2.25;;;1.17;;
10934;SDS011;5520;45.752;4.874;2022-08-05T00:26:18;2.35;;;1.35;;
10934;SDS011;5520;45.752;4.874;2022-08-05T00:28:47;2.22;;;1.20;;
10934;SDS011;5520;45.752;4.874;2022-08-05T00:31:17;1.27;;;1.25;;
10934;SDS011;5520;45.752;4.874;2022-08-05T00:34:04;1.35;;;1.25;;
10934;SDS011;5520;45.752;4.874;2022-08-05T00:36:52;1.55;;;1.10;;
10934;SDS011;5520;45.752;4.874;2022-08-05T00:39:39;1.45;;;1.35;;
10934;SDS011;5520;45.752;4.874;2022-08-05T00:42:29;1.40;;;1.30;;
10934;SDS011;5520;45.752;4.874;2022-08-05T00:44:58;2.75;;;1.10;;
10934;SDS011;5520;45.752;4.874;2022-08-05T00:47:27;2.88;;;1.50;;
10934;SDS011;5520;45.752;4.874;2022-08-05T00:50:15;2.33;;;1.27;;
10934;SDS011;5520;45.752;4.874;2022-08-05T00:52:46;2.83;;;1.40;;
10934;SDS011;5520;45.752;4.874;2022-08-05T00:55:14;1.38;;;1.27;;
10934;SDS011;5520;45.752;4.874;2022-08-05T00:57:44;2.10;;;1.13;;
10934;SDS011;5520;45.752;4.874;2022-08-05T01:00:25;3.92;;;1.30;;
10934;SDS011;5520;45.752;4.874;2022-08-05T01:02:54;1.55;;;1.27;;
10934;SDS011;5520;45.752;4.874;2022-08-05T01:05:25;3.05;;;1.50;;
10934;SDS011;5520;45.752;4.874;2022-08-05T01:07:53;1.73;;;1.20;;
10934;SDS011;5520;45.752;4.874;2022-08-05T01:10:42;3.22;;;1.60;;
10934;SDS011;5520;45.752;4.874;2022-08-05T01:13:20;1.58;;;1.40;;
10934;SDS011;5520;45.752;4.874;2022-08-05T01:16:12;1.45;;;1.20;;
10934;SDS011;5520;45.752;4.874;2022-08-05T01:18:53;2.88;;;1.27;;
10934;SDS011;5520;45.752;4.874;2022-08-05T01:21:46;1.75;;;1.50;;
10934;SDS011;5520;45.752;4.874;2022-08-05T01:24:22;1.98;;;1.55;;
10934;SDS011;5520;45.752;4.874;2022-08-05T01:26:57;1.33;;;1.23;;
10934;SDS011;5520;45.752;4.874;2022-08-05T01:29:45;1.50;;;1.40;;
10934;SDS011;5520;45.752;4.874;2022-08-05T01:32:14;1.75;;;1.33;;
10934;SDS011;5520;45.752;4.874;2022-08-05T01:34:44;1.88;;;1.60;;
10934;SDS011;5520;45.752;4.874;2022-08-05T01:37:15;3.03;;;1.42;;
10934;SDS011;5520;45.752;4.874;2022-08-05T01:39:51;4.35;;;1.33;;
10934;SDS011;5520;45.752;4.874;2022-08-05T01:42:24;1.58;;;1.48;;
10934;SDS011;5520;45.752;4.874;2022-08-05T01:44:54;1.50;;;1.40;;
10934;SDS011;5520;45.752;4.874;2022-08-05T01:47:25;2.05;;;1.65;;
10934;SDS011;5520;45.752;4.874;2022-08-05T01:50:05;1.90;;;1.70;;
10934;SDS011;5520;45.752;4.874;2022-08-05T01:52:41;1.98;;;1.55;;
10934;SDS011;5520;45.752;4.874;2022-08-05T01:55:15;14.25;;;2.00;;
10934;SDS011;5520;45.752;4.874;2022-08-05T01:57:44;1.55;;;1.45;;
10934;SDS011;5520;45.752;4.874;2022-08-05T02:00:36;2.03;;;1.83;;
10934;SDS011;5520;45.752;4.874;2022-08-05T02:03:19;1.70;;;1.60;;
10934;SDS011;5520;45.752;4.874;2022-08-05T02:05:57;1.52;;;1.45;;
10934;SDS011;5520;45.752;4.874;2022-08-05T02:08:37;1.80;;;1.70;;
10934;SDS011;5520;45.752;4.874;2022-08-05T02:11:20;2.17;;;1.73;;
10934;SDS011;5520;45.752;4.874;2022-08-05T02:13:59;2.55;;;1.80;;
10934;SDS011;5520;45.752;4.874;2022-08-05T02:16:31;2.63;;;1.80;;
10934;SDS011;5520;45.752;4.874;2022-08-05T02:19:04;1.75;;;1.65;;
10934;SDS011;5520;45.752;4.874;2022-08-05T02:21:34;2.55;;;1.70;;
10934;SDS011;5520;45.752;4.874;2022-08-05T02:24:13;2.25;;;1.67;;
10934;SDS011;5520;45.752;4.874;2022-08-05T02:26:46;5.05;;;1.63;;
10934;SDS011;5520;45.752;4.874;2022-08-05T02:29:21;1.88;;;1.70;;
10934;SDS011;5520;45.752;4.874;2022-08-05T02:32:10;2.15;;;1.95;;
10934;SDS011;5520;45.752;4.874;2022-08-05T02:34:54;2.25;;;1.88;;
10934;SDS011;5520;45.752;4.874;2022-08-05T02:37:27;3.67;;;2.00;;
10934;SDS011;5520;45.752;4.874;2022-08-05T02:39:57;1.77;;;1.50;;
10934;SDS011;5520;45.752;4.874;2022-08-05T02:42:25;2.55;;;1.85;;
10934;SDS011;5520;45.752;4.874;2022-08-05T02:45:01;4.32;;;2.30;;
10934;SDS011;5520;45.752;4.874;2022-08-05T02:47:30;2.42;;;1.90;;
10934;SDS011;5520;45.752;4.874;2022-08-05T02:50:20;4.45;;;2.00;;
10934;SDS011;5520;45.752;4.874;2022-08-05T02:52:49;2.63;;;1.90;;
10934;SDS011;5520;45.752;4.874;2022-08-05T02:55:17;2.00;;;1.90;;
10934;SDS011;5520;45.752;4.874;2022-08-05T02:58:05;1.77;;;1.67;;
10934;SDS011;5520;45.752;4.874;2022-08-05T03:00:38;3.40;;;1.90;;
10934;SDS011;5520;45.752;4.874;2022-08-05T03:03:13;3.03;;;2.08;;
10934;SDS011;5520;45.752;4.874;2022-08-05T03:05:42;2.20;;;2.10;;
10934;SDS011;5520;45.752;4.874;2022-08-05T03:08:30;2.42;;;2.22;;
10934;SDS011;5520;45.752;4.874;2022-08-05T03:10:59;4.22;;;2.10;;
10934;SDS011;5520;45.752;4.874;2022-08-05T03:13:47;2.40;;;2.20;;
10934;SDS011;5520;45.752;4.874;2022-08-05T03:16:28;3.20;;;1.90;;
10934;SDS011;5520;45.752;4.874;2022-08-05T03:18:58;3.88;;;2.15;;
10934;SDS011;5520;45.752;4.874;2022-08-05T03:21:37;2.00;;;1.90;;
10934;SDS011;5520;45.752;4.874;2022-08-05T03:24:14;2.55;;;1.75;;
10934;SDS011;5520;45.752;4.874;2022-08-05T03:26:52;2.30;;;2.17;;
10934;SDS011;5520;45.752;4.874;2022-08-05T03:29:20;2.10;;;2.00;;
10934;SDS011;5520;45.752;4.874;2022-08-05T03:31:48;1.80;;;1.70;;
10934;SDS011;5520;45.752;4.874;2022-08-05T03:34:27;2.65;;;2.17;;
10934;SDS011;5520;45.752;4.874;2022-08-05T03:36:55;5.43;;;2.10;;
10934;SDS011;5520;45.752;4.874;2022-08-05T03:39:23;2.38;;;2.05;;
10934;SDS011;5520;45.752;4.874;2022-08-05T03:41:52;2.58;;;2.22;;
10934;SDS011;5520;45.752;4.874;2022-08-05T03:44:21;3.03;;;2.15;;
10934;SDS011;5520;45.752;4.874;2022-08-05T03:46:49;2.40;;;2.20;;
10934;SDS011;5520;45.752;4.874;2022-08-05T03:49:17;3.35;;;1.95;;
10934;SDS011;5520;45.752;4.874;2022-08-05T03:51:52;1.92;;;1.83;;
10934;SDS011;5520;45.752;4.874;2022-08-05T03:54:44;2.35;;;2.15;;
10934;SDS011;5520;45.752;4.874;2022-08-05T03:57:35;3.15;;;2.30;;
10934;SDS011;5520;45.752;4.874;2022-08-05T04:00:09;2.03;;;1.92;;
10934;SDS011;5520;45.752;4.874;2022-08-05T04:02:41;2.13;;;1.92;;
10934;SDS011;5520;45.752;4.874;2022-08-05T04:05:23;2.30;;;2.17;;
10934;SDS011;5520;45.752;4.874;2022-08-05T04:08:00;2.50;;;2.30;;
10934;SDS011;5520;45.752;4.874;2022-08-05T04:10:31;2.28;;;2.10;;
10934;SDS011;5520;45.752;4.874;2022-08-05T04:13:04;2.50;;;2.30;;
10934;SDS011;5520;45.752;4.874;2022-08-05T04:15:32;2.95;;;2.53;;
10934;SDS011;5520;45.752;4.874;2022-08-05T04:18:02;3.15;;;2.42;;
10934;SDS011;5520;45.752;4.874;2022-08-05T04:20:35;3.05;;;2.40;;
10934;SDS011;5520;45.752;4.874;2022-08-05T04:23:08;2.38;;;2.15;;
10934;SDS011;5520;45.752;4.874;2022-08-05T04:25:38;2.83;;;2.47;;
10934;SDS011;5520;45.752;4.874;2022-08-05T04:28:26;3.05;;;2.10;;
10934;SDS011;5520;45.752;4.874;2022-08-05T04:30:57;2.70;;;2.50;;
10934;SDS011;5520;45.752;4.874;2022-08-05T04:33:26;2.83;;;2.50;;
10934;SDS011;5520;45.752;4.874;2022-08-05T04:36:14;5.32;;;2.30;;
10934;SDS011;5520;45.752;4.874;2022-08-05T04:39:04;2.90;;;2.25;;
10934;SDS011;5520;45.752;4.874;2022-08-05T04:41:32;2.70;;;2.50;;
10934;SDS011;5520;45.752;4.874;2022-08-05T04:44:04;2.50;;;2.30;;
10934;SDS011;5520;45.752;4.874;2022-08-05T04:46:35;5.03;;;2.35;;
10934;SDS011;5520;45.752;4.874;2022-08-05T04:49:03;2.40;;;2.20;;
10934;SDS011;5520;45.752;4.874;2022-08-05T04:51:39;2.50;;;2.30;;
10934;SDS011;5520;45.752;4.874;2022-08-05T04:54:10;3.92;;;2.83;;
10934;SDS011;5520;45.752;4.874;2022-08-05T04:56:40;4.20;;;2.40;;
10934;SDS011;5520;45.752;4.874;2022-08-05T04:59:09;2.40;;;2.17;;
10934;SDS011;5520;45.752;4.874;2022-08-05T05:01:49;2.83;;;2.25;;
10934;SDS011;5520;45.752;4.874;2022-08-05T05:04:37;6.05;;;2.70;;
10934;SDS011;5520;45.752;4.874;2022-08-05T05:07:09;7.60;;;2.60;;
10934;SDS011;5520;45.752;4.874;2022-08-05T05:09:42;3.05;;;2.65;;
10934;SDS011;5520;45.752;4.874;2022-08-05T05:12:11;4.35;;;2.50;;
10934;SDS011;5520;45.752;4.874;2022-08-05T05:14:40;2.83;;;2.60;;
10934;SDS011;5520;45.752;4.874;2022-08-05T05:17:16;3.20;;;2.33;;
10934;SDS011;5520;45.752;4.874;2022-08-05T05:19:51;4.32;;;2.42;;
10934;SDS011;5520;45.752;4.874;2022-08-05T05:22:19;4.35;;;2.47;;
10934;SDS011;5520;45.752;4.874;2022-08-05T05:24:53;3.28;;;2.97;;
10934;SDS011;5520;45.752;4.874;2022-08-05T05:27:25;2.65;;;2.30;;
10934;SDS011;5520;45.752;4.874;2022-08-05T05:30:11;2.80;;;2.50;;
10934;SDS011;5520;45.752;4.874;2022-08-05T05:32:55;3.13;;;2.58;;
10934;SDS011;5520;45.752;4.874;2022-08-05T05:35:26;5.63;;;2.33;;
10934;SDS011;5520;45.752;4.874;2022-08-05T05:38:04;4.30;;;2.75;;
10934;SDS011;5520;45.752;4.874;2022-08-05T05:40:39;3.13;;;2.60;;
10934;SDS011;5520;45.752;4.874;2022-08-05T05:43:16;4.30;;;2.50;;
10934;SDS011;5520;45.752;4.874;2022-08-05T05:46:04;6.80;;;2.78;;
10934;SDS011;5520;45.752;4.874;2022-08-05T05:48:41;3.97;;;2.53;;
10934;SDS011;5520;45.752;4.874;2022-08-05T05:51:16;4.55;;;2.85;;
10934;SDS011;5520;45.752;4.874;2022-08-05T05:53:44;3.03;;;2.83;;
10934;SDS011;5520;45.752;4.874;2022-08-05T05:56:26;2.83;;;2.63;;
10934;SDS011;5520;45.752;4.874;2022-08-05T05:58:59;4.95;;;2.65;;
10934;SDS011;5520;45.752;4.874;2022-08-05T06:01:28;3.13;;;2.83;;
10934;SDS011;5520;45.752;4.874;2022-08-05T06:04:04;4.07;;;2.70;;
10934;SDS011;5520;45.752;4.874;2022-08-05T06:06:32;7.25;;;3.08;;
10934;SDS011;5520;45.752;4.874;2022-08-05T06:09:00;3.38;;;3.08;;
10934;SDS011;5520;45.752;4.874;2022-08-05T06:11:30;5.43;;;3.20;;
10934;SDS011;5520;45.752;4.874;2022-08-05T06:13:59;3.78;;;3.30;;
10934;SDS011;5520;45.752;4.874;2022-08-05T06:16:27;4.30;;;2.67;;
10934;SDS011;5520;45.752;4.874;2022-08-05T06:19:02;3.38;;;2.72;;
10934;SDS011;5520;45.752;4.874;2022-08-05T06:21:33;3.28;;;2.53;;
10934;SDS011;5520;45.752;4.874;2022-08-05T06:24:04;4.50;;;2.90;;
10934;SDS011;5520;45.752;4.874;2022-08-05T06:26:39;3.28;;;2.97;;
10934;SDS011;5520;45.752;4.874;2022-08-05T06:29:17;5.68;;;3.38;;
10934;SDS011;5520;45.752;4.874;2022-08-05T06:32:05;3.30;;;2.85;;
10934;SDS011;5520;45.752;4.874;2022-08-05T06:34:53;3.55;;;3.13;;
10934;SDS011;5520;45.752;4.874;2022-08-05T06:37:22;5.10;;;3.53;;
10934;SDS011;5520;45.752;4.874;2022-08-05T06:40:11;5.50;;;3.20;;
10934;SDS011;5520;45.752;4.874;2022-08-05T06:42:45;5.57;;;3.05;;
10934;SDS011;5520;45.752;4.874;2022-08-05T06:45:17;2.92;;;2.60;;
10934;SDS011;5520;45.752;4.874;2022-08-05T06:47:47;3.53;;;3.00;;
10934;SDS011;5520;45.752;4.874;2022-08-05T06:50:35;4.80;;;3.20;;
10934;SDS011;5520;45.752;4.874;2022-08-05T06:53:03;5.88;;;2.80;;
10934;SDS011;5520;45.752;4.874;2022-08-05T06:55:51;6.47;;;3.35;;
10934;SDS011;5520;45.752;4.874;2022-08-05T06:58:21;5.32;;;3.35;;
10934;SDS011;5520;45.752;4.874;2022-08-05T07:01:02;4.45;;;2.67;;
10934;SDS011;5520;45.752;4.874;2022-08-05T07:03:31;3.78;;;2.90;;
10934;SDS011;5520;45.752;4.874;2022-08-05T07:05:59;7.00;;;3.50;;
10934;SDS011;5520;45.752;4.874;2022-08-05T07:08:40;3.80;;;3.17;;
10934;SDS011;5520;45.752;4.874;2022-08-05T07:11:08;3.65;;;2.97;;
10934;SDS011;5520;45.752;4.874;2022-08-05T07:13:42;5.03;;;2.65;;
10934;SDS011;5520;45.752;4.874;2022-08-05T07:16:29;3.80;;;2.90;;
10934;SDS011;5520;45.752;4.874;2022-08-05T07:19:45;4.50;;;3.10;;
10934;SDS011;5520;45.752;4.874;2022-08-05T07:22:33;3.88;;;3.05;;
10934;SDS011;5520;45.752;4.874;2022-08-05T07:25:01;5.18;;;3.03;;
10934;SDS011;5520;45.752;4.874;2022-08-05T07:27:49;5.13;;;2.92;;
10934;SDS011;5520;45.752;4.874;2022-08-05T07:30:31;5.00;;;3.05;;
10934;SDS011;5520;45.752;4.874;2022-08-05T07:33:05;5.32;;;2.97;;
10934;SDS011;5520;45.752;4.874;2022-08-05T07:35:36;4.75;;;3.33;;
10934;SDS011;5520;45.752;4.874;2022-08-05T07:38:24;9.35;;;3.08;;
10934;SDS011;5520;45.752;4.874;2022-08-05T07:41:01;4.90;;;2.95;;
10934;SDS011;5520;45.752;4.874;2022-08-05T07:43:49;5.80;;;3.25;;
10934;SDS011;5520;45.752;4.874;2022-08-05T07:46:18;5.82;;;3.10;;
10934;SDS011;5520;45.752;4.874;2022-08-05T07:48:51;6.07;;;2.38;;
10934;SDS011;5520;45.752;4.874;2022-08-05T07:51:30;4.32;;;3.10;;
10934;SDS011;5520;45.752;4.874;2022-08-05T07:54:03;6.35;;;2.80;;
10934;SDS011;5520;45.752;4.874;2022-08-05T07:56:33;4.97;;;2.95;;
10934;SDS011;5520;45.752;4.874;2022-08-05T07:59:21;6.95;;;2.70;;
10934;SDS011;5520;45.752;4.874;2022-08-05T08:02:06;3.45;;;3.00;;
10934;SDS011;5520;45.752;4.874;2022-08-05T08:04:42;5.45;;;2.85;;
10934;SDS011;5520;45.752;4.874;2022-08-05T08:07:11;4.30;;;2.80;;
10934;SDS011;5520;45.752;4.874;2022-08-05T08:09:39;3.40;;;2.70;;
10934;SDS011;5520;45.752;4.874;2022-08-05T08:12:07;6.65;;;2.75;;
10934;SDS011;5520;45.752;4.874;2022-08-05T08:14:55;4.43;;;3.15;;
10934;SDS011;5520;45.752;4.874;2022-08-05T08:17:30;6.13;;;3.25;;
10934;SDS011;5520;45.752;4.874;2022-08-05T08:20:00;7.65;;;2.85;;
10934;SDS011;5520;45.752;4.874;2022-08-05T08:22:51;3.58;;;3.28;;
10934;SDS011;5520;45.752;4.874;2022-08-05T08:25:21;3.38;;;3.05;;
10934;SDS011;5520;45.752;4.874;2022-08-05T08:28:09;5.80;;;2.70;;
10934;SDS011;5520;45.752;4.874;2022-08-05T08:30:57;3.70;;;3.25;;
10934;SDS011;5520;45.752;4.874;2022-08-05T08:33:27;3.35;;;2.90;;
10934;SDS011;5520;45.752;4.874;2022-08-05T08:36:03;3.17;;;2.70;;
10934;SDS011;5520;45.752;4.874;2022-08-05T08:38:51;11.15;;;3.40;;
10934;SDS011;5520;45.752;4.874;2022-08-05T08:41:22;3.15;;;2.67;;
10934;SDS011;5520;45.752;4.874;2022-08-05T08:44:11;5.38;;;3.63;;
10934;SDS011;5520;45.752;4.874;2022-08-05T08:47:00;5.70;;;3.15;;
10934;SDS011;5520;45.752;4.874;2022-08-05T08:49:51;5.20;;;2.95;;
10934;SDS011;5520;45.752;4.874;2022-08-05T08:52:39;7.85;;;3.20;;
10934;SDS011;5520;45.752;4.874;2022-08-05T08:55:16;6.60;;;2.60;;
10934;SDS011;5520;45.752;4.874;2022-08-05T08:58:04;3.53;;;2.50;;
10934;SDS011;5520;45.752;4.874;2022-08-05T09:00:34;7.43;;;2.83;;
10934;SDS011;5520;45.752;4.874;2022-08-05T09:03:04;4.57;;;2.40;;
10934;SDS011;5520;45.752;4.874;2022-08-05T09:05:33;5.45;;;3.03;;
10934;SDS011;5520;45.752;4.874;2022-08-05T09:08:21;3.35;;;2.80;;
10934;SDS011;5520;45.752;4.874;2022-08-05T09:10:52;2.80;;;2.40;;
10934;SDS011;5520;45.752;4.874;2022-08-05T09:13:21;2.50;;;2.30;;
10934;SDS011;5520;45.752;4.874;2022-08-05T09:15:49;3.42;;;2.47;;
10934;SDS011;5520;45.752;4.874;2022-08-05T09:18:17;3.22;;;2.60;;
10934;SDS011;5520;45.752;4.874;2022-08-05T09:20:46;3.63;;;2.78;;
10934;SDS011;5520;45.752;4.874;2022-08-05T09:23:17;3.47;;;2.30;;
10934;SDS011;5520;45.752;4.874;2022-08-05T09:25:48;3.88;;;2.67;;
10934;SDS011;5520;45.752;4.874;2022-08-05T09:28:31;4.03;;;2.45;;
10934;SDS011;5520;45.752;4.874;2022-08-05T09:31:01;4.53;;;2.40;;
10934;SDS011;5520;45.752;4.874;2022-08-05T09:33:52;3.83;;;2.28;;
10934;SDS011;5520;45.752;4.874;2022-08-05T09:36:23;2.30;;;2.10;;
10934;SDS011;5520;45.752;4.874;2022-08-05T09:38:59;4.80;;;2.40;;
10934;SDS011;5520;45.752;4.874;2022-08-05T09:41:27;3.25;;;2.30;;
10934;SDS011;5520;45.752;4.874;2022-08-05T09:43:58;2.45;;;2.17;;
10934;SDS011;5520;45.752;4.874;2022-08-05T09:46:32;2.47;;;2.28;;
10934;SDS011;5520;45.752;4.874;2022-08-05T09:49:02;4.90;;;2.78;;
10934;SDS011;5520;45.752;4.874;2022-08-05T09:51:46;3.40;;;2.40;;
10934;SDS011;5520;45.752;4.874;2022-08-05T09:54:15;4.03;;;2.35;;
10934;SDS011;5520;45.752;4.874;2022-08-05T09:56:54;2.83;;;2.35;;
10934;SDS011;5520;45.752;4.874;2022-08-05T09:59:26;5.80;;;2.70;;
10934;SDS011;5520;45.752;4.874;2022-08-05T10:02:00;2.67;;;2.08;;
10934;SDS011;5520;45.752;4.874;2022-08-05T10:04:33;2.67;;;2.47;;
10934;SDS011;5520;45.752;4.874;2022-08-05T10:07:06;4.38;;;2.30;;
10934;SDS011;5520;45.752;4.874;2022-08-05T10:09:52;2.95;;;2.33;;
10934;SDS011;5520;45.752;4.874;2022-08-05T10:12:41;4.22;;;2.10;;
10934;SDS011;5520;45.752;4.874;2022-08-05T10:15:15;2.83;;;2.53;;
10934;SDS011;5520;45.752;4.874;2022-08-05T10:18:01;2.70;;;2.50;;
10934;SDS011;5520;45.752;4.874;2022-08-05T10:20:30;3.65;;;2.53;;
10934;SDS011;5520;45.752;4.874;2022-08-05T10:23:00;3.13;;;1.90;;
10934;SDS011;5520;45.752;4.874;2022-08-05T10:25:34;3.35;;;2.75;;
10934;SDS011;5520;45.752;4.874;2022-08-05T10:28:02;2.72;;;2.33;;
10934;SDS011;5520;45.752;4.874;2022-08-05T10:30:42;2.75;;;2.55;;
10934;SDS011;5520;45.752;4.874;2022-08-05T10:33:31;3.63;;;2.70;;
10934;SDS011;5520;45.752;4.874;2022-08-05T10:36:01;3.38;;;2.40;;
10934;SDS011;5520;45.752;4.874;2022-08-05T10:38:33;2.47;;;2.03;;
10934;SDS011;5520;45.752;4.874;2022-08-05T10:41:04;5.85;;;2.60;;
10934;SDS011;5520;45.752;4.874;2022-08-05T10:43:41;4.85;;;2.30;;
10934;SDS011;5520;45.752;4.874;2022-08-05T10:46:11;2.72;;;2.53;;
10934;SDS011;5520;45.752;4.874;2022-08-05T10:48:40;3.10;;;2.50;;
10934;SDS011;5520;45.752;4.874;2022-08-05T10:51:23;14.32;;;3.65;;
10934;SDS011;5520;45.752;4.874;2022-08-05T10:53:57;3.35;;;3.05;;
10934;SDS011;5520;45.752;4.874;2022-08-05T10:56:45;3.75;;;2.63;;
10934;SDS011;5520;45.752;4.874;2022-08-05T10:59:15;4.10;;;2.88;;
10934;SDS011;5520;45.752;4.874;2022-08-05T11:02:07;6.82;;;2.72;;
10934;SDS011;5520;45.752;4.874;2022-08-05T11:04:55;4.68;;;2.60;;
10934;SDS011;5520;45.752;4.874;2022-08-05T11:07:23;3.20;;;2.90;;
10934;SDS011;5520;45.752;4.874;2022-08-05T11:10:21;3.38;;;2.83;;
10934;SDS011;5520;45.752;4.874;2022-08-05T11:12:53;6.32;;;3.10;;
10934;SDS011;5520;45.752;4.874;2022-08-05T11:15:22;3.30;;;2.63;;
10934;SDS011;5520;45.752;4.874;2022-08-05T11:18:22;4.15;;;2.65;;
10934;SDS011;5520;45.752;4.874;2022-08-05T11:20:50;3.22;;;2.80;;
10934;SDS011;5520;45.752;4.874;2022-08-05T11:23:35;5.72;;;2.97;;
10934;SDS011;5520;45.752;4.874;2022-08-05T11:26:24;4.60;;;2.80;;
10934;SDS011;5520;45.752;4.874;2022-08-05T11:28:58;5.30;;;3.10;;
10934;SDS011;5520;45.752;4.874;2022-08-05T11:31:38;5.18;;;2.97;;
10934;SDS011;5520;45.752;4.874;2022-08-05T11:34:36;5.70;;;3.03;;
10934;SDS011;5520;45.752;4.874;2022-08-05T11:37:04;3.13;;;2.80;;
10934;SDS011;5520;45.752;4.874;2022-08-05T11:39:52;4.32;;;3.08;;
10934;SDS011;5520;45.752;4.874;2022-08-05T11:42:30;6.68;;;3.58;;
10934;SDS011;5520;45.752;4.874;2022-08-05T11:45:06;3.40;;;3.10;;
10934;SDS011;5520;45.752;4.874;2022-08-05T11:47:52;7.88;;;3.13;;
10934;SDS011;5520;45.752;4.874;2022-08-05T11:50:20;10.80;;;4.07;;
10934;SDS011;5520;45.752;4.874;2022-08-05T11:52:50;13.90;;;4.15;;
10934;SDS011;5520;45.752;4.874;2022-08-05T11:55:23;5.63;;;3.78;;
10934;SDS011;5520;45.752;4.874;2022-08-05T11:57:59;5.90;;;3.28;;
10934;SDS011;5520;45.752;4.874;2022-08-05T12:00:37;14.35;;;4.30;;
10934;SDS011;5520;45.752;4.874;2022-08-05T12:03:16;5.68;;;4.43;;
10934;SDS011;5520;45.752;4.874;2022-08-05T12:05:57;6.15;;;4.30;;
10934;SDS011;5520;45.752;4.874;2022-08-05T12:08:25;5.90;;;3.42;;
10934;SDS011;5520;45.752;4.874;2022-08-05T12:10:53;3.20;;;2.90;;
10934;SDS011;5520;45.752;4.874;2022-08-05T12:13:24;4.43;;;3.33;;
10934;SDS011;5520;45.752;4.874;2022-08-05T12:16:16;8.20;;;3.20;;
10934;SDS011;5520;45.752;4.874;2022-08-05T12:18:44;3.67;;;3.25;;
10934;SDS011;5520;45.752;4.874;2022-08-05T12:21:19;4.55;;;3.47;;
10934;SDS011;5520;45.752;4.874;2022-08-05T12:23:53;4.75;;;3.50;;
10934;SDS011;5520;45.752;4.874;2022-08-05T12:26:21;6.57;;;3.45;;
10934;SDS011;5520;45.752;4.874;2022-08-05T12:28:52;3.50;;;3.20;;
10934;SDS011;5520;45.752;4.874;2022-08-05T12:31:21;4.32;;;3.47;;
10934;SDS011;5520;45.752;4.874;2022-08-05T12:34:08;6.97;;;3.50;;
10934;SDS011;5520;45.752;4.874;2022-08-05T12:36:47;8.88;;;3.28;;
10934;SDS011;5520;45.752;4.874;2022-08-05T12:39:17;3.70;;;3.40;;
10934;SDS011;5520;45.752;4.874;2022-08-05T12:41:45;4.90;;;3.15;;
10934;SDS011;5520;45.752;4.874;2022-08-05T12:44:16;3.30;;;3.10;;
10934;SDS011;5520;45.752;4.874;2022-08-05T12:46:58;3.17;;;2.97;;
10934;SDS011;5520;45.752;4.874;2022-08-05T12:49:36;10.55;;;4.00;;
10934;SDS011;5520;45.752;4.874;2022-08-05T12:52:25;4.60;;;3.30;;
10934;SDS011;5520;45.752;4.874;2022-08-05T12:55:14;5.18;;;3.75;;
10934;SDS011;5520;45.752;4.874;2022-08-05T12:57:48;6.93;;;3.13;;
10934;SDS011;5520;45.752;4.874;2022-08-05T13:00:40;10.63;;;3.10;;
10934;SDS011;5520;45.752;4.874;2022-08-05T13:03:28;6.15;;;2.67;;
10934;SDS011;5520;45.752;4.874;2022-08-05T13:05:58;6.22;;;3.17;;
10934;SDS011;5520;45.752;4.874;2022-08-05T13:08:27;4.53;;;3.08;;
10934;SDS011;5520;45.752;4.874;2022-08-05T13:10:58;5.28;;;3.10;;
10934;SDS011;5520;45.752;4.874;2022-08-05T13:13:26;4.60;;;3.05;;
10934;SDS011;5520;45.752;4.874;2022-08-05T13:16:15;4.10;;;3.25;;
10934;SDS011;5520;45.752;4.874;2022-08-05T13:18:53;10.00;;;3.72;;
10934;SDS011;5520;45.752;4.874;2022-08-05T13:21:24;4.90;;;3.42;;
10934;SDS011;5520;45.752;4.874;2022-08-05T13:24:03;6.20;;;3.05;;
10934;SDS011;5520;45.752;4.874;2022-08-05T13:26:34;7.38;;;3.10;;
10934;SDS011;5520;45.752;4.874;2022-08-05T13:29:02;4.43;;;3.05;;
10934;SDS011;5520;45.752;4.874;2022-08-05T13:31:32;5.65;;;3.33;;
10934;SDS011;5520;45.752;4.874;2022-08-05T13:34:20;3.90;;;3.10;;
10934;SDS011;5520;45.752;4.874;2022-08-05T13:36:51;8.07;;;3.60;;
10934;SDS011;5520;45.752;4.874;2022-08-05T13:39:19;5.28;;;3.45;;
10934;SDS011;5520;45.752;4.874;2022-08-05T13:42:07;6.38;;;4.07;;
10934;SDS011;5520;45.752;4.874;2022-08-05T13:44:40;6.35;;;3.33;;
10934;SDS011;5520;45.752;4.874;2022-08-05T13:47:12;10.85;;;3.30;;
10934;SDS011;5520;45.752;4.874;2022-08-05T13:50:01;6.22;;;3.25;;
10934;SDS011;5520;45.752;4.874;2022-08-05T13:52:37;4.80;;;3.65;;
10934;SDS011;5520;45.752;4.874;2022-08-05T13:55:06;6.28;;;3.17;;
10934;SDS011;5520;45.752;4.874;2022-08-05T13:57:35;2.95;;;2.72;;
10934;SDS011;5520;45.752;4.874;2022-08-05T14:00:17;5.22;;;3.03;;
10934;SDS011;5520;45.752;4.874;2022-08-05T14:02:54;3.10;;;2.80;;
10934;SDS011;5520;45.752;4.874;2022-08-05T14:05:23;3.88;;;3.28;;
10934;SDS011;5520;45.752;4.874;2022-08-05T14:08:11;2.80;;;2.60;;
10934;SDS011;5520;45.752;4.874;2022-08-05T14:10:53;2.88;;;2.67;;
10934;SDS011;5520;45.752;4.874;2022-08-05T14:13:41;3.83;;;3.22;;
10934;SDS011;5520;45.752;4.874;2022-08-05T14:16:13;9.52;;;2.97;;
10934;SDS011;5520;45.752;4.874;2022-08-05T14:18:43;5.00;;;3.00;;
10934;SDS011;5520;45.752;4.874;2022-08-05T14:21:11;3.15;;;2.95;;
10934;SDS011;5520;45.752;4.874;2022-08-05T14:23:59;4.57;;;2.58;;
10934;SDS011;5520;45.752;4.874;2022-08-05T14:26:27;5.20;;;2.83;;
10934;SDS011;5520;45.752;4.874;2022-08-05T14:29:12;4.72;;;2.97;;
10934;SDS011;5520;45.752;4.874;2022-08-05T14:31:42;3.08;;;2.65;;
10934;SDS011;5520;45.752;4.874;2022-08-05T14:34:31;6.57;;;3.05;;
10934;SDS011;5520;45.752;4.874;2022-08-05T14:37:01;4.50;;;2.70;;
10934;SDS011;5520;45.752;4.874;2022-08-05T14:39:29;4.40;;;3.15;;
10934;SDS011;5520;45.752;4.874;2022-08-05T14:42:17;4.78;;;2.67;;
10934;SDS011;5520;45.752;4.874;2022-08-05T14:44:54;3.40;;;2.83;;
10934;SDS011;5520;45.752;4.874;2022-08-05T14:47:24;7.97;;;4.05;;
10934;SDS011;5520;45.752;4.874;2022-08-05T14:50:14;3.00;;;2.80;;
10934;SDS011;5520;45.752;4.874;2022-08-05T14:52:45;3.80;;;2.80;;
10934;SDS011;5520;45.752;4.874;2022-08-05T14:55:23;4.90;;;2.53;;
10934;SDS011;5520;45.752;4.874;2022-08-05T14:58:04;5.32;;;3.17;;
10934;SDS011;5520;45.752;4.874;2022-08-05T15:00:37;3.03;;;2.72;;
10934;SDS011;5520;45.752;4.874;2022-08-05T15:03:25;3.80;;;3.00;;
10934;SDS011;5520;45.752;4.874;2022-08-05T15:06:06;6.32;;;2.53;;
10934;SDS011;5520;45.752;4.874;2022-08-05T15:08:40;7.65;;;2.40;;
10934;SDS011;5520;45.752;4.874;2022-08-05T15:11:28;4.65;;;2.67;;
10934;SDS011;5520;45.752;4.874;2022-08-05T15:14:16;3.67;;;2.72;;
10934;SDS011;5520;45.752;4.874;2022-08-05T15:17:01;3.33;;;2.72;;
10934;SDS011;5520;45.752;4.874;2022-08-05T15:19:29;3.72;;;2.60;;
10934;SDS011;5520;45.752;4.874;2022-08-05T15:21:59;4.47;;;2.53;;
10934;SDS011;5520;45.752;4.874;2022-08-05T15:24:27;4.88;;;3.13;;
10934;SDS011;5520;45.752;4.874;2022-08-05T15:26:56;8.18;;;2.63;;
10934;SDS011;5520;45.752;4.874;2022-08-05T15:29:25;3.75;;;2.78;;
10934;SDS011;5520;45.752;4.874;2022-08-05T15:31:55;6.10;;;3.15;;
10934;SDS011;5520;45.752;4.874;2022-08-05T15:34:31;11.05;;;3.17;;
10934;SDS011;5520;45.752;4.874;2022-08-05T15:37:00;30.67;;;4.15;;
10934;SDS011;5520;45.752;4.874;2022-08-05T15:39:31;19.67;;;3.65;;
10934;SDS011;5520;45.752;4.874;2022-08-05T15:42:19;19.50;;;3.53;;
10934;SDS011;5520;45.752;4.874;2022-08-05T15:45:08;10.20;;;2.70;;
10934;SDS011;5520;45.752;4.874;2022-08-05T15:47:36;9.45;;;2.80;;
10934;SDS011;5520;45.752;4.874;2022-08-05T15:50:05;10.23;;;2.58;;
10934;SDS011;5520;45.752;4.874;2022-08-05T15:52:41;12.73;;;2.22;;
10934;SDS011;5520;45.752;4.874;2022-08-05T15:55:20;3.65;;;2.10;;